sensor_id;sensor_type;location;lat;lon;timestamp;P1;durP1;ratioP1;P2;durP2;ratioP2
24439;SDS011;12618;54.386;18.394;2023-09-18T00:00:24;23.80;;;19.50;;
24439;SDS011;12618;54.386;18.394;2023-09-18T00:02:56;24.40;;;18.60;;
24439;SDS011;12618;54.386;18.394;2023-09-18T00:05:27;22.70;;;18.50;;
24439;SDS011;12618;54.386;18.394;2023-09-18T00:07:59;22.70;;;18.70;;
24439;SDS011;12618;54.386;18.394;2023-09-18T00:10:34;25.20;;;18.90;;
24439;SDS011;12618;54.386;18.394;2023-09-18T00:13:06;24.20;;;18.60;;
24439;SDS011;12618;54.386;18.394;2023-09-18T00:15:38;22.60;;;17.70;;
24439;SDS011;12618;54.386;18.394;2023-09-18T00:18:15;23.10;;;18.80;;
24439;SDS011;12618;54.386;18.394;2023-09-18T00:20:48;26.10;;;18.60;;
24439;SDS011;12618;54.386;18.394;2023-09-18T00:23:20;24.20;;;20.20;;
24439;SDS011;12618;54.386;18.394;2023-09-18T00:25:52;26.20;;;19.10;;
24439;SDS011;12618;54.386;18.394;2023-09-18T00:28:24;26.90;;;19.90;;
24439;SDS011;12618;54.386;18.394;2023-09-18T00:30:55;26.60;;;20.80;;
24439;SDS011;12618;54.386;18.394;2023-09-18T00:33:27;24.50;;;19.60;;
24439;SDS011;12618;54.386;18.394;2023-09-18T00:35:59;27.00;;;20.90;;
24439;SDS011;12618;54.386;18.394;2023-09-18T00:38:30;23.90;;;19.80;;
24439;SDS011;12618;54.386;18.394;2023-09-18T00:41:02;25.40;;;19.10;;
24439;SDS011;12618;54.386;18.394;2023-09-18T00:43:34;24.90;;;19.20;;
24439;SDS011;12618;54.386;18.394;2023-09-18T00:46:06;23.10;;;19.30;;
24439;SDS011;12618;54.386;18.394;2023-09-18T00:48:39;22.70;;;18.00;;
24439;SDS011;12618;54.386;18.394;2023-09-18T00:51:12;23.80;;;18.60;;
24439;SDS011;12618;54.386;18.394;2023-09-18T00:53:45;23.30;;;17.80;;
24439;SDS011;12618;54.386;18.394;2023-09-18T00:56:19;21.80;;;18.30;;
24439;SDS011;12618;54.386;18.394;2023-09-18T00:58:54;23.20;;;18.30;;
24439;SDS011;12618;54.386;18.394;2023-09-18T01:01:26;22.50;;;18.50;;
24439;SDS011;12618;54.386;18.394;2023-09-18T01:03:59;26.20;;;21.40;;
24439;SDS011;12618;54.386;18.394;2023-09-18T01:06:31;26.90;;;20.40;;
24439;SDS011;12618;54.386;18.394;2023-09-18T01:09:02;26.80;;;21.60;;
24439;SDS011;12618;54.386;18.394;2023-09-18T01:11:52;28.10;;;22.20;;
24439;SDS011;12618;54.386;18.394;2023-09-18T01:14:35;28.70;;;22.20;;
24439;SDS011;12618;54.386;18.394;2023-09-18T01:17:10;28.60;;;22.90;;
24439;SDS011;12618;54.386;18.394;2023-09-18T01:19:45;30.10;;;23.00;;
24439;SDS011;12618;54.386;18.394;2023-09-18T01:22:18;29.20;;;22.10;;
24439;SDS011;12618;54.386;18.394;2023-09-18T01:24:51;30.10;;;22.00;;
24439;SDS011;12618;54.386;18.394;2023-09-18T01:27:22;28.20;;;21.10;;
24439;SDS011;12618;54.386;18.394;2023-09-18T01:29:54;27.60;;;21.90;;
24439;SDS011;12618;54.386;18.394;2023-09-18T01:32:26;27.40;;;22.00;;
24439;SDS011;12618;54.386;18.394;2023-09-18T01:35:02;27.80;;;22.00;;
24439;SDS011;12618;54.386;18.394;2023-09-18T01:37:36;26.00;;;21.00;;
24439;SDS011;12618;54.386;18.394;2023-09-18T01:40:08;25.80;;;20.30;;
24439;SDS011;12618;54.386;18.394;2023-09-18T01:42:42;23.90;;;20.10;;
24439;SDS011;12618;54.386;18.394;2023-09-18T01:45:14;26.00;;;20.30;;
24439;SDS011;12618;54.386;18.394;2023-09-18T01:47:46;26.00;;;18.80;;
24439;SDS011;12618;54.386;18.394;2023-09-18T01:50:18;25.50;;;20.10;;
24439;SDS011;12618;54.386;18.394;2023-09-18T01:52:49;25.40;;;19.60;;
24439;SDS011;12618;54.386;18.394;2023-09-18T01:55:21;26.30;;;19.30;;
24439;SDS011;12618;54.386;18.394;2023-09-18T01:57:53;22.80;;;18.30;;
24439;SDS011;12618;54.386;18.394;2023-09-18T02:00:25;21.90;;;18.10;;
24439;SDS011;12618;54.386;18.394;2023-09-18T02:02:57;23.70;;;17.60;;
24439;SDS011;12618;54.386;18.394;2023-09-18T02:05:48;19.60;;;17.50;;
24439;SDS011;12618;54.386;18.394;2023-09-18T02:08:20;21.60;;;17.10;;
24439;SDS011;12618;54.386;18.394;2023-09-18T02:10:52;19.60;;;16.80;;
24439;SDS011;12618;54.386;18.394;2023-09-18T02:13:24;23.20;;;17.80;;
24439;SDS011;12618;54.386;18.394;2023-09-18T02:15:56;20.50;;;16.80;;
24439;SDS011;12618;54.386;18.394;2023-09-18T02:18:27;21.50;;;17.80;;
24439;SDS011;12618;54.386;18.394;2023-09-18T02:20:59;22.30;;;17.30;;
24439;SDS011;12618;54.386;18.394;2023-09-18T02:23:31;20.20;;;17.00;;
24439;SDS011;12618;54.386;18.394;2023-09-18T02:26:02;19.10;;;15.80;;
24439;SDS011;12618;54.386;18.394;2023-09-18T02:28:34;17.70;;;14.80;;
24439;SDS011;12618;54.386;18.394;2023-09-18T02:31:06;18.30;;;15.20;;
24439;SDS011;12618;54.386;18.394;2023-09-18T02:33:38;18.10;;;14.40;;
24439;SDS011;12618;54.386;18.394;2023-09-18T02:36:10;21.20;;;16.50;;
24439;SDS011;12618;54.386;18.394;2023-09-18T02:38:42;18.60;;;15.60;;
24439;SDS011;12618;54.386;18.394;2023-09-18T02:41:14;17.80;;;15.00;;
24439;SDS011;12618;54.386;18.394;2023-09-18T02:43:46;20.70;;;15.70;;
24439;SDS011;12618;54.386;18.394;2023-09-18T02:46:17;17.60;;;14.80;;
24439;SDS011;12618;54.386;18.394;2023-09-18T02:48:49;18.00;;;14.50;;
24439;SDS011;12618;54.386;18.394;2023-09-18T02:51:21;16.30;;;14.30;;
24439;SDS011;12618;54.386;18.394;2023-09-18T02:53:53;17.60;;;14.00;;
24439;SDS011;12618;54.386;18.394;2023-09-18T02:56:25;19.00;;;15.70;;
24439;SDS011;12618;54.386;18.394;2023-09-18T02:58:56;17.30;;;14.80;;
24439;SDS011;12618;54.386;18.394;2023-09-18T03:01:28;20.30;;;15.30;;
24439;SDS011;12618;54.386;18.394;2023-09-18T03:03:59;17.40;;;15.00;;
24439;SDS011;12618;54.386;18.394;2023-09-18T03:06:33;19.90;;;15.90;;
24439;SDS011;12618;54.386;18.394;2023-09-18T03:09:04;16.80;;;14.00;;
24439;SDS011;12618;54.386;18.394;2023-09-18T03:11:36;18.20;;;14.60;;
24439;SDS011;12618;54.386;18.394;2023-09-18T03:14:08;20.60;;;17.10;;
24439;SDS011;12618;54.386;18.394;2023-09-18T03:16:39;19.20;;;16.60;;
24439;SDS011;12618;54.386;18.394;2023-09-18T03:19:11;22.00;;;18.20;;
24439;SDS011;12618;54.386;18.394;2023-09-18T03:21:44;22.10;;;16.70;;
24439;SDS011;12618;54.386;18.394;2023-09-18T03:24:15;18.90;;;15.80;;
24439;SDS011;12618;54.386;18.394;2023-09-18T03:26:47;18.50;;;16.50;;
24439;SDS011;12618;54.386;18.394;2023-09-18T03:29:20;24.60;;;16.60;;
24439;SDS011;12618;54.386;18.394;2023-09-18T03:31:52;21.80;;;17.50;;
24439;SDS011;12618;54.386;18.394;2023-09-18T03:34:24;20.00;;;15.50;;
24439;SDS011;12618;54.386;18.394;2023-09-18T03:36:59;26.20;;;17.30;;
24439;SDS011;12618;54.386;18.394;2023-09-18T03:39:31;83.20;;;19.90;;
24439;SDS011;12618;54.386;18.394;2023-09-18T03:42:02;28.40;;;19.70;;
24439;SDS011;12618;54.386;18.394;2023-09-18T03:44:34;55.80;;;18.50;;
24439;SDS011;12618;54.386;18.394;2023-09-18T03:47:06;76.30;;;20.80;;
24439;SDS011;12618;54.386;18.394;2023-09-18T03:49:37;75.80;;;19.50;;
24439;SDS011;12618;54.386;18.394;2023-09-18T03:52:09;31.70;;;19.70;;
24439;SDS011;12618;54.386;18.394;2023-09-18T03:54:41;84.40;;;22.10;;
24439;SDS011;12618;54.386;18.394;2023-09-18T03:57:12;37.20;;;21.20;;
24439;SDS011;12618;54.386;18.394;2023-09-18T03:59:44;127.50;;;18.80;;
24439;SDS011;12618;54.386;18.394;2023-09-18T04:02:16;28.40;;;18.10;;
24439;SDS011;12618;54.386;18.394;2023-09-18T04:04:47;32.70;;;19.70;;
24439;SDS011;12618;54.386;18.394;2023-09-18T04:07:19;92.30;;;21.60;;
24439;SDS011;12618;54.386;18.394;2023-09-18T04:09:51;50.90;;;21.20;;
24439;SDS011;12618;54.386;18.394;2023-09-18T04:12:22;36.80;;;20.50;;
24439;SDS011;12618;54.386;18.394;2023-09-18T04:14:54;46.00;;;20.00;;
24439;SDS011;12618;54.386;18.394;2023-09-18T04:17:26;33.20;;;17.70;;
24439;SDS011;12618;54.386;18.394;2023-09-18T04:19:58;26.10;;;16.80;;
24439;SDS011;12618;54.386;18.394;2023-09-18T04:22:29;19.70;;;15.20;;
24439;SDS011;12618;54.386;18.394;2023-09-18T04:25:01;19.80;;;15.90;;
24439;SDS011;12618;54.386;18.394;2023-09-18T04:27:36;18.80;;;16.00;;
24439;SDS011;12618;54.386;18.394;2023-09-18T04:30:08;24.50;;;16.00;;
24439;SDS011;12618;54.386;18.394;2023-09-18T04:32:43;54.90;;;19.10;;
24439;SDS011;12618;54.386;18.394;2023-09-18T04:35:15;22.20;;;17.60;;
24439;SDS011;12618;54.386;18.394;2023-09-18T04:37:47;21.50;;;16.90;;
24439;SDS011;12618;54.386;18.394;2023-09-18T04:40:19;24.60;;;18.50;;
24439;SDS011;12618;54.386;18.394;2023-09-18T04:42:51;22.30;;;16.80;;
24439;SDS011;12618;54.386;18.394;2023-09-18T04:45:22;23.10;;;16.30;;
24439;SDS011;12618;54.386;18.394;2023-09-18T04:47:54;24.40;;;17.40;;
24439;SDS011;12618;54.386;18.394;2023-09-18T04:50:26;24.10;;;18.50;;
24439;SDS011;12618;54.386;18.394;2023-09-18T04:52:58;21.70;;;17.20;;
24439;SDS011;12618;54.386;18.394;2023-09-18T04:55:29;42.20;;;17.10;;
24439;SDS011;12618;54.386;18.394;2023-09-18T04:58:02;29.80;;;17.20;;
24439;SDS011;12618;54.386;18.394;2023-09-18T05:00:35;34.00;;;17.20;;
24439;SDS011;12618;54.386;18.394;2023-09-18T05:03:08;17.60;;;14.90;;
24439;SDS011;12618;54.386;18.394;2023-09-18T05:05:46;21.20;;;16.10;;
24439;SDS011;12618;54.386;18.394;2023-09-18T05:08:18;25.60;;;16.80;;
24439;SDS011;12618;54.386;18.394;2023-09-18T05:10:50;27.50;;;15.60;;
24439;SDS011;12618;54.386;18.394;2023-09-18T05:13:22;19.10;;;15.20;;
24439;SDS011;12618;54.386;18.394;2023-09-18T05:15:54;18.10;;;14.60;;
24439;SDS011;12618;54.386;18.394;2023-09-18T05:18:25;21.30;;;16.10;;
24439;SDS011;12618;54.386;18.394;2023-09-18T05:21:00;20.10;;;15.60;;
24439;SDS011;12618;54.386;18.394;2023-09-18T05:23:33;23.30;;;17.00;;
24439;SDS011;12618;54.386;18.394;2023-09-18T05:26:05;18.00;;;15.30;;
24439;SDS011;12618;54.386;18.394;2023-09-18T05:28:36;19.00;;;16.30;;
24439;SDS011;12618;54.386;18.394;2023-09-18T05:31:08;18.30;;;15.60;;
24439;SDS011;12618;54.386;18.394;2023-09-18T05:33:40;20.30;;;16.90;;
24439;SDS011;12618;54.386;18.394;2023-09-18T05:36:12;19.80;;;15.80;;
24439;SDS011;12618;54.386;18.394;2023-09-18T05:38:45;17.20;;;14.60;;
24439;SDS011;12618;54.386;18.394;2023-09-18T05:41:17;20.80;;;15.30;;
24439;SDS011;12618;54.386;18.394;2023-09-18T05:43:49;23.30;;;15.30;;
24439;SDS011;12618;54.386;18.394;2023-09-18T05:46:21;18.00;;;15.10;;
24439;SDS011;12618;54.386;18.394;2023-09-18T05:48:52;21.20;;;15.90;;
24439;SDS011;12618;54.386;18.394;2023-09-18T05:51:28;19.10;;;15.80;;
24439;SDS011;12618;54.386;18.394;2023-09-18T05:54:01;19.60;;;15.50;;
24439;SDS011;12618;54.386;18.394;2023-09-18T05:56:33;19.80;;;15.60;;
24439;SDS011;12618;54.386;18.394;2023-09-18T05:59:05;25.40;;;16.40;;
24439;SDS011;12618;54.386;18.394;2023-09-18T06:01:37;18.40;;;15.40;;
24439;SDS011;12618;54.386;18.394;2023-09-18T06:04:09;19.90;;;15.80;;
24439;SDS011;12618;54.386;18.394;2023-09-18T06:06:42;20.20;;;16.50;;
24439;SDS011;12618;54.386;18.394;2023-09-18T06:09:14;19.70;;;15.60;;
24439;SDS011;12618;54.386;18.394;2023-09-18T06:11:45;23.80;;;16.60;;
24439;SDS011;12618;54.386;18.394;2023-09-18T06:14:17;21.30;;;15.70;;
24439;SDS011;12618;54.386;18.394;2023-09-18T06:16:49;25.20;;;16.10;;
24439;SDS011;12618;54.386;18.394;2023-09-18T06:19:21;18.80;;;15.40;;
24439;SDS011;12618;54.386;18.394;2023-09-18T06:21:53;20.00;;;15.60;;
24439;SDS011;12618;54.386;18.394;2023-09-18T06:24:24;18.80;;;14.70;;
24439;SDS011;12618;54.386;18.394;2023-09-18T06:26:56;17.60;;;14.90;;
24439;SDS011;12618;54.386;18.394;2023-09-18T06:29:28;20.80;;;15.80;;
24439;SDS011;12618;54.386;18.394;2023-09-18T06:32:00;19.50;;;14.80;;
24439;SDS011;12618;54.386;18.394;2023-09-18T06:34:32;19.40;;;14.50;;
24439;SDS011;12618;54.386;18.394;2023-09-18T06:37:03;17.10;;;14.50;;
24439;SDS011;12618;54.386;18.394;2023-09-18T06:39:35;28.00;;;14.70;;
24439;SDS011;12618;54.386;18.394;2023-09-18T06:42:08;17.00;;;13.60;;
24439;SDS011;12618;54.386;18.394;2023-09-18T06:44:40;19.80;;;15.70;;
24439;SDS011;12618;54.386;18.394;2023-09-18T06:47:12;49.40;;;15.70;;
24439;SDS011;12618;54.386;18.394;2023-09-18T06:49:45;17.00;;;13.90;;
24439;SDS011;12618;54.386;18.394;2023-09-18T06:52:18;15.80;;;12.60;;
24439;SDS011;12618;54.386;18.394;2023-09-18T06:54:50;15.30;;;13.70;;
24439;SDS011;12618;54.386;18.394;2023-09-18T06:57:22;16.80;;;14.20;;
24439;SDS011;12618;54.386;18.394;2023-09-18T06:59:53;15.40;;;12.90;;
24439;SDS011;12618;54.386;18.394;2023-09-18T07:02:25;24.00;;;13.20;;
24439;SDS011;12618;54.386;18.394;2023-09-18T07:04:58;14.40;;;12.60;;
24439;SDS011;12618;54.386;18.394;2023-09-18T07:07:30;15.00;;;12.80;;
24439;SDS011;12618;54.386;18.394;2023-09-18T07:10:03;16.10;;;12.50;;
24439;SDS011;12618;54.386;18.394;2023-09-18T07:12:36;15.30;;;13.70;;
24439;SDS011;12618;54.386;18.394;2023-09-18T07:15:08;13.30;;;12.00;;
24439;SDS011;12618;54.386;18.394;2023-09-18T07:17:40;12.60;;;11.30;;
24439;SDS011;12618;54.386;18.394;2023-09-18T07:20:11;13.10;;;11.60;;
24439;SDS011;12618;54.386;18.394;2023-09-18T07:22:46;15.30;;;12.60;;
24439;SDS011;12618;54.386;18.394;2023-09-18T07:25:19;17.90;;;11.50;;
24439;SDS011;12618;54.386;18.394;2023-09-18T07:27:50;17.60;;;11.30;;
24439;SDS011;12618;54.386;18.394;2023-09-18T07:30:22;13.20;;;11.80;;
24439;SDS011;12618;54.386;18.394;2023-09-18T07:32:58;13.40;;;12.10;;
24439;SDS011;12618;54.386;18.394;2023-09-18T07:38:03;16.90;;;11.90;;
24439;SDS011;12618;54.386;18.394;2023-09-18T07:40:35;14.80;;;12.80;;
24439;SDS011;12618;54.386;18.394;2023-09-18T07:43:07;13.40;;;12.00;;
24439;SDS011;12618;54.386;18.394;2023-09-18T07:45:39;13.60;;;11.60;;
24439;SDS011;12618;54.386;18.394;2023-09-18T07:48:11;14.10;;;12.50;;
24439;SDS011;12618;54.386;18.394;2023-09-18T07:50:43;12.90;;;10.80;;
24439;SDS011;12618;54.386;18.394;2023-09-18T07:53:15;11.70;;;10.50;;
24439;SDS011;12618;54.386;18.394;2023-09-18T07:55:54;12.40;;;10.40;;
24439;SDS011;12618;54.386;18.394;2023-09-18T07:58:28;11.70;;;10.10;;
24439;SDS011;12618;54.386;18.394;2023-09-18T08:01:00;11.30;;;10.00;;
24439;SDS011;12618;54.386;18.394;2023-09-18T08:03:36;13.40;;;9.80;;
24439;SDS011;12618;54.386;18.394;2023-09-18T08:06:08;11.20;;;9.40;;
24439;SDS011;12618;54.386;18.394;2023-09-18T08:08:40;9.30;;;8.40;;
24439;SDS011;12618;54.386;18.394;2023-09-18T08:11:12;12.40;;;8.30;;
24439;SDS011;12618;54.386;18.394;2023-09-18T08:13:43;8.40;;;7.50;;
24439;SDS011;12618;54.386;18.394;2023-09-18T08:16:15;10.40;;;7.70;;
24439;SDS011;12618;54.386;18.394;2023-09-18T08:18:48;8.80;;;7.10;;
24439;SDS011;12618;54.386;18.394;2023-09-18T08:21:20;8.60;;;6.60;;
24439;SDS011;12618;54.386;18.394;2023-09-18T08:23:52;6.80;;;6.10;;
24439;SDS011;12618;54.386;18.394;2023-09-18T08:26:24;9.30;;;7.20;;
24439;SDS011;12618;54.386;18.394;2023-09-18T08:28:56;6.60;;;6.00;;
24439;SDS011;12618;54.386;18.394;2023-09-18T08:31:28;7.30;;;6.00;;
24439;SDS011;12618;54.386;18.394;2023-09-18T08:34:02;10.30;;;6.50;;
24439;SDS011;12618;54.386;18.394;2023-09-18T08:36:34;7.80;;;5.80;;
24439;SDS011;12618;54.386;18.394;2023-09-18T08:39:06;6.20;;;5.60;;
24439;SDS011;12618;54.386;18.394;2023-09-18T08:41:38;6.50;;;5.70;;
24439;SDS011;12618;54.386;18.394;2023-09-18T08:44:14;6.50;;;5.80;;
24439;SDS011;12618;54.386;18.394;2023-09-18T08:46:46;7.50;;;5.80;;
24439;SDS011;12618;54.386;18.394;2023-09-18T08:49:17;6.20;;;5.60;;
24439;SDS011;12618;54.386;18.394;2023-09-18T08:51:51;6.40;;;5.50;;
24439;SDS011;12618;54.386;18.394;2023-09-18T08:54:26;10.20;;;6.70;;
24439;SDS011;12618;54.386;18.394;2023-09-18T08:56:59;7.20;;;6.50;;
24439;SDS011;12618;54.386;18.394;2023-09-18T08:59:31;7.10;;;6.40;;
24439;SDS011;12618;54.386;18.394;2023-09-18T09:02:03;7.50;;;6.70;;
24439;SDS011;12618;54.386;18.394;2023-09-18T09:04:35;9.60;;;7.00;;
24439;SDS011;12618;54.386;18.394;2023-09-18T09:07:06;9.10;;;6.80;;
24439;SDS011;12618;54.386;18.394;2023-09-18T09:09:38;9.00;;;6.10;;
24439;SDS011;12618;54.386;18.394;2023-09-18T09:12:10;8.50;;;6.00;;
24439;SDS011;12618;54.386;18.394;2023-09-18T09:14:49;9.20;;;6.30;;
24439;SDS011;12618;54.386;18.394;2023-09-18T09:17:33;9.30;;;6.60;;
24439;SDS011;12618;54.386;18.394;2023-09-18T09:20:11;9.50;;;6.80;;
24439;SDS011;12618;54.386;18.394;2023-09-18T09:22:44;8.70;;;6.50;;
24439;SDS011;12618;54.386;18.394;2023-09-18T09:25:23;6.90;;;6.10;;
24439;SDS011;12618;54.386;18.394;2023-09-18T09:28:00;7.30;;;6.10;;
24439;SDS011;12618;54.386;18.394;2023-09-18T09:30:35;8.20;;;6.00;;
24439;SDS011;12618;54.386;18.394;2023-09-18T09:33:10;10.00;;;6.60;;
24439;SDS011;12618;54.386;18.394;2023-09-18T09:35:43;12.70;;;6.20;;
24439;SDS011;12618;54.386;18.394;2023-09-18T09:38:15;9.80;;;7.10;;
24439;SDS011;12618;54.386;18.394;2023-09-18T09:40:47;8.90;;;6.90;;
24439;SDS011;12618;54.386;18.394;2023-09-18T09:43:19;11.90;;;6.70;;
24439;SDS011;12618;54.386;18.394;2023-09-18T09:46:02;7.10;;;6.20;;
24439;SDS011;12618;54.386;18.394;2023-09-18T09:48:33;6.10;;;5.40;;
24439;SDS011;12618;54.386;18.394;2023-09-18T09:51:08;6.60;;;5.90;;
24439;SDS011;12618;54.386;18.394;2023-09-18T09:53:52;8.60;;;6.30;;
24439;SDS011;12618;54.386;18.394;2023-09-18T09:59:20;9.70;;;5.60;;
24439;SDS011;12618;54.386;18.394;2023-09-18T10:01:51;6.30;;;5.50;;
24439;SDS011;12618;54.386;18.394;2023-09-18T10:04:23;7.40;;;5.30;;
24439;SDS011;12618;54.386;18.394;2023-09-18T10:07:01;31.50;;;6.50;;
24439;SDS011;12618;54.386;18.394;2023-09-18T10:09:39;5.90;;;5.00;;
24439;SDS011;12618;54.386;18.394;2023-09-18T10:12:14;21.60;;;6.60;;
24439;SDS011;12618;54.386;18.394;2023-09-18T10:14:51;32.00;;;7.20;;
24439;SDS011;12618;54.386;18.394;2023-09-18T10:17:33;7.60;;;5.20;;
24439;SDS011;12618;54.386;18.394;2023-09-18T10:20:07;7.90;;;4.80;;
24439;SDS011;12618;54.386;18.394;2023-09-18T10:22:41;7.00;;;5.40;;
24439;SDS011;12618;54.386;18.394;2023-09-18T10:25:23;6.40;;;5.20;;
24439;SDS011;12618;54.386;18.394;2023-09-18T10:27:55;6.30;;;5.30;;
24439;SDS011;12618;54.386;18.394;2023-09-18T10:30:33;9.60;;;5.00;;
24439;SDS011;12618;54.386;18.394;2023-09-18T10:33:07;7.30;;;5.60;;
24439;SDS011;12618;54.386;18.394;2023-09-18T10:35:40;6.10;;;5.20;;
24439;SDS011;12618;54.386;18.394;2023-09-18T10:38:14;9.30;;;5.10;;
24439;SDS011;12618;54.386;18.394;2023-09-18T10:40:48;8.20;;;4.70;;
24439;SDS011;12618;54.386;18.394;2023-09-18T10:43:21;10.20;;;5.10;;
24439;SDS011;12618;54.386;18.394;2023-09-18T10:45:53;6.20;;;4.80;;
24439;SDS011;12618;54.386;18.394;2023-09-18T10:48:25;7.20;;;5.20;;
24439;SDS011;12618;54.386;18.394;2023-09-18T10:50:58;9.50;;;5.00;;
24439;SDS011;12618;54.386;18.394;2023-09-18T10:53:36;5.30;;;4.40;;
24439;SDS011;12618;54.386;18.394;2023-09-18T10:56:07;6.70;;;5.00;;
24439;SDS011;12618;54.386;18.394;2023-09-18T10:58:39;7.10;;;4.80;;
24439;SDS011;12618;54.386;18.394;2023-09-18T11:01:12;6.00;;;4.70;;
24439;SDS011;12618;54.386;18.394;2023-09-18T11:03:44;5.60;;;4.50;;
24439;SDS011;12618;54.386;18.394;2023-09-18T11:06:17;5.20;;;4.70;;
24439;SDS011;12618;54.386;18.394;2023-09-18T11:08:53;4.90;;;4.50;;
24439;SDS011;12618;54.386;18.394;2023-09-18T11:11:35;5.60;;;4.10;;
24439;SDS011;12618;54.386;18.394;2023-09-18T11:14:10;4.20;;;3.80;;
24439;SDS011;12618;54.386;18.394;2023-09-18T11:16:43;5.20;;;3.90;;
24439;SDS011;12618;54.386;18.394;2023-09-18T11:19:18;5.80;;;3.90;;
24439;SDS011;12618;54.386;18.394;2023-09-18T11:21:51;8.20;;;4.10;;
24439;SDS011;12618;54.386;18.394;2023-09-18T11:24:39;5.90;;;4.20;;
24439;SDS011;12618;54.386;18.394;2023-09-18T11:27:11;5.40;;;4.30;;
24439;SDS011;12618;54.386;18.394;2023-09-18T11:29:43;16.10;;;5.10;;
24439;SDS011;12618;54.386;18.394;2023-09-18T11:32:37;8.70;;;4.30;;
24439;SDS011;12618;54.386;18.394;2023-09-18T11:35:11;5.80;;;4.10;;
24439;SDS011;12618;54.386;18.394;2023-09-18T11:37:45;7.70;;;4.30;;
24439;SDS011;12618;54.386;18.394;2023-09-18T11:40:32;5.00;;;4.40;;
24439;SDS011;12618;54.386;18.394;2023-09-18T11:43:25;9.10;;;4.50;;
24439;SDS011;12618;54.386;18.394;2023-09-18T11:46:01;6.30;;;4.50;;
24439;SDS011;12618;54.386;18.394;2023-09-18T11:48:36;6.20;;;4.20;;
24439;SDS011;12618;54.386;18.394;2023-09-18T11:51:12;7.40;;;4.00;;
24439;SDS011;12618;54.386;18.394;2023-09-18T11:53:45;5.70;;;4.40;;
24439;SDS011;12618;54.386;18.394;2023-09-18T11:56:18;6.00;;;4.30;;
24439;SDS011;12618;54.386;18.394;2023-09-18T11:58:51;6.20;;;4.10;;
24439;SDS011;12618;54.386;18.394;2023-09-18T12:01:26;5.50;;;4.30;;
24439;SDS011;12618;54.386;18.394;2023-09-18T12:04:02;5.80;;;3.90;;
24439;SDS011;12618;54.386;18.394;2023-09-18T12:06:40;12.80;;;4.30;;
24439;SDS011;12618;54.386;18.394;2023-09-18T12:09:12;8.20;;;4.30;;
24439;SDS011;12618;54.386;18.394;2023-09-18T12:11:44;5.80;;;4.40;;
24439;SDS011;12618;54.386;18.394;2023-09-18T12:14:18;5.10;;;3.80;;
24439;SDS011;12618;54.386;18.394;2023-09-18T12:16:51;5.00;;;3.50;;
24439;SDS011;12618;54.386;18.394;2023-09-18T12:19:23;7.40;;;4.10;;
24439;SDS011;12618;54.386;18.394;2023-09-18T12:21:55;4.30;;;3.60;;
24439;SDS011;12618;54.386;18.394;2023-09-18T12:24:27;5.00;;;4.30;;
24439;SDS011;12618;54.386;18.394;2023-09-18T12:26:59;5.00;;;3.60;;
24439;SDS011;12618;54.386;18.394;2023-09-18T12:29:31;6.60;;;3.70;;
24439;SDS011;12618;54.386;18.394;2023-09-18T12:32:04;12.30;;;4.00;;
24439;SDS011;12618;54.386;18.394;2023-09-18T12:34:44;4.10;;;3.70;;
24439;SDS011;12618;54.386;18.394;2023-09-18T12:37:16;5.00;;;3.70;;
24439;SDS011;12618;54.386;18.394;2023-09-18T12:39:48;5.50;;;3.60;;
24439;SDS011;12618;54.386;18.394;2023-09-18T12:42:23;4.80;;;3.80;;
24439;SDS011;12618;54.386;18.394;2023-09-18T12:44:55;5.60;;;3.80;;
24439;SDS011;12618;54.386;18.394;2023-09-18T12:47:27;4.40;;;3.80;;
24439;SDS011;12618;54.386;18.394;2023-09-18T12:50:03;8.00;;;4.30;;
24439;SDS011;12618;54.386;18.394;2023-09-18T12:52:35;6.30;;;4.20;;
24439;SDS011;12618;54.386;18.394;2023-09-18T12:55:07;5.80;;;4.30;;
24439;SDS011;12618;54.386;18.394;2023-09-18T12:57:40;7.70;;;3.80;;
24439;SDS011;12618;54.386;18.394;2023-09-18T13:00:12;5.70;;;4.10;;
24439;SDS011;12618;54.386;18.394;2023-09-18T13:02:44;6.00;;;3.80;;
24439;SDS011;12618;54.386;18.394;2023-09-18T13:05:19;5.60;;;4.10;;
24439;SDS011;12618;54.386;18.394;2023-09-18T13:07:52;7.00;;;4.30;;
24439;SDS011;12618;54.386;18.394;2023-09-18T13:10:25;9.40;;;4.70;;
24439;SDS011;12618;54.386;18.394;2023-09-18T13:12:59;5.30;;;4.40;;
24439;SDS011;12618;54.386;18.394;2023-09-18T13:15:31;8.40;;;4.50;;
24439;SDS011;12618;54.386;18.394;2023-09-18T13:18:10;4.50;;;4.10;;
24439;SDS011;12618;54.386;18.394;2023-09-18T13:20:43;10.80;;;4.60;;
24439;SDS011;12618;54.386;18.394;2023-09-18T13:23:15;7.20;;;4.40;;
24439;SDS011;12618;54.386;18.394;2023-09-18T13:25:58;5.40;;;4.20;;
24439;SDS011;12618;54.386;18.394;2023-09-18T13:28:30;13.00;;;4.40;;
24439;SDS011;12618;54.386;18.394;2023-09-18T13:31:05;5.10;;;4.30;;
24439;SDS011;12618;54.386;18.394;2023-09-18T13:33:38;6.60;;;4.10;;
24439;SDS011;12618;54.386;18.394;2023-09-18T13:36:11;5.30;;;4.50;;
24439;SDS011;12618;54.386;18.394;2023-09-18T13:38:43;5.30;;;4.50;;
24439;SDS011;12618;54.386;18.394;2023-09-18T13:41:16;5.10;;;4.10;;
24439;SDS011;12618;54.386;18.394;2023-09-18T13:43:47;31.30;;;6.70;;
24439;SDS011;12618;54.386;18.394;2023-09-18T13:46:20;5.50;;;4.70;;
24439;SDS011;12618;54.386;18.394;2023-09-18T13:48:51;20.60;;;5.40;;
24439;SDS011;12618;54.386;18.394;2023-09-18T13:51:23;8.20;;;4.50;;
24439;SDS011;12618;54.386;18.394;2023-09-18T13:53:55;7.90;;;4.50;;
24439;SDS011;12618;54.386;18.394;2023-09-18T13:56:28;5.70;;;4.60;;
24439;SDS011;12618;54.386;18.394;2023-09-18T13:59:00;9.70;;;4.60;;
24439;SDS011;12618;54.386;18.394;2023-09-18T14:01:31;6.60;;;4.60;;
24439;SDS011;12618;54.386;18.394;2023-09-18T14:04:03;10.20;;;4.50;;
24439;SDS011;12618;54.386;18.394;2023-09-18T14:06:35;5.80;;;4.50;;
24439;SDS011;12618;54.386;18.394;2023-09-18T14:09:07;12.70;;;5.00;;
24439;SDS011;12618;54.386;18.394;2023-09-18T14:11:38;9.20;;;4.80;;
24439;SDS011;12618;54.386;18.394;2023-09-18T14:14:10;5.10;;;4.60;;
24439;SDS011;12618;54.386;18.394;2023-09-18T14:16:42;7.70;;;4.70;;
24439;SDS011;12618;54.386;18.394;2023-09-18T14:19:15;5.80;;;4.80;;
24439;SDS011;12618;54.386;18.394;2023-09-18T14:21:46;6.80;;;4.90;;
24439;SDS011;12618;54.386;18.394;2023-09-18T14:24:20;5.80;;;4.70;;
24439;SDS011;12618;54.386;18.394;2023-09-18T14:26:55;6.80;;;4.90;;
24439;SDS011;12618;54.386;18.394;2023-09-18T14:29:27;7.10;;;5.20;;
24439;SDS011;12618;54.386;18.394;2023-09-18T14:31:59;7.60;;;4.60;;
24439;SDS011;12618;54.386;18.394;2023-09-18T14:34:32;7.90;;;4.70;;
24439;SDS011;12618;54.386;18.394;2023-09-18T14:37:06;9.00;;;5.00;;
24439;SDS011;12618;54.386;18.394;2023-09-18T14:39:38;8.50;;;5.00;;
24439;SDS011;12618;54.386;18.394;2023-09-18T14:42:10;12.90;;;5.20;;
24439;SDS011;12618;54.386;18.394;2023-09-18T14:44:42;7.50;;;5.40;;
24439;SDS011;12618;54.386;18.394;2023-09-18T14:49:55;8.60;;;5.90;;
24439;SDS011;12618;54.386;18.394;2023-09-18T14:55:30;8.30;;;5.60;;
24439;SDS011;12618;54.386;18.394;2023-09-18T14:58:05;7.30;;;5.80;;
24439;SDS011;12618;54.386;18.394;2023-09-18T15:00:37;10.10;;;6.40;;
24439;SDS011;12618;54.386;18.394;2023-09-18T15:03:12;9.30;;;6.60;;